createdAt,value
2022-08-03T00:01:40.507Z,4.20
2022-08-03T00:04:10.163Z,3.60
2022-08-03T00:06:38.263Z,3.50
2022-08-03T00:09:06.506Z,4.00
2022-08-03T00:11:34.685Z,4.40
2022-08-03T00:14:05.006Z,3.60
2022-08-03T00:16:33.164Z,4.00
2022-08-03T00:19:02.445Z,3.70
2022-08-03T00:21:31.582Z,4.30
2022-08-03T00:23:59.381Z,4.10
2022-08-03T00:26:27.158Z,3.70
2022-08-03T00:28:54.921Z,4.40
2022-08-03T00:31:45.004Z,3.90
2022-08-03T00:34:10.688Z,4.10
2022-08-03T00:36:40.448Z,3.50
2022-08-03T00:39:08.567Z,3.60
2022-08-03T00:41:36.478Z,4.10
2022-08-03T00:44:04.656Z,3.70
2022-08-03T00:46:32.509Z,3.70
2022-08-03T00:49:00.449Z,4.10
2022-08-03T00:51:28.223Z,4.30
2022-08-03T00:53:55.988Z,4.30
2022-08-03T00:56:23.865Z,4.30
2022-08-03T00:58:52.782Z,4.60
2022-08-03T01:01:20.665Z,4.30
2022-08-03T01:03:48.470Z,4.80
2022-08-03T01:06:29.133Z,4.20
2022-08-03T01:09:16.646Z,4.90
2022-08-03T01:11:59.852Z,5.20
2022-08-03T01:14:44.539Z,4.00
2022-08-03T01:17:22.948Z,4.30
2022-08-03T01:20:08.036Z,4.50
2022-08-03T01:23:01.027Z,4.80
2022-08-03T01:25:55.267Z,4.80
2022-08-03T01:29:01.471Z,4.80
2022-08-03T01:32:53.268Z,3.80
2022-08-03T01:35:04.948Z,5.10
2022-08-03T01:37:42.314Z,4.60
2022-08-03T01:40:13.370Z,4.20
2022-08-03T01:42:44.633Z,4.40
2022-08-03T01:45:15.400Z,4.60
2022-08-03T01:47:45.683Z,4.80
2022-08-03T01:50:15.189Z,5.10
2022-08-03T01:52:49.010Z,4.70
2022-08-03T01:55:20.425Z,6.10
2022-08-03T01:58:05.201Z,4.80
2022-08-03T02:00:38.871Z,4.40
2022-08-03T02:03:08.425Z,4.80
2022-08-03T02:05:39.533Z,4.30
2022-08-03T02:08:12.871Z,4.80
2022-08-03T02:10:46.119Z,5.10
2022-08-03T02:13:15.590Z,4.70
2022-08-03T02:15:44.840Z,4.90
2022-08-03T02:18:13.915Z,4.50
2022-08-03T02:20:43.481Z,5.00
2022-08-03T02:23:11.424Z,5.10
2022-08-03T02:25:44.774Z,4.70
2022-08-03T02:28:20.758Z,4.60
2022-08-03T02:30:54.792Z,4.50
2022-08-03T02:33:38.859Z,4.40
2022-08-03T02:36:08.567Z,4.50
2022-08-03T02:38:41.273Z,4.30
2022-08-03T02:44:06.145Z,4.50
2022-08-03T02:46:38.643Z,4.90
2022-08-03T02:49:41.421Z,4.60
2022-08-03T02:51:56.530Z,4.50
2022-08-03T02:54:26.926Z,5.10
2022-08-03T02:56:58.566Z,5.90
2022-08-03T02:59:31.139Z,5.00
2022-08-03T03:04:32.947Z,5.20
2022-08-03T03:07:04.594Z,5.20
2022-08-03T03:09:41.620Z,5.00
2022-08-03T03:12:13.737Z,5.20
2022-08-03T03:14:41.795Z,5.80
2022-08-03T03:17:11.751Z,4.50
2022-08-03T03:19:41.480Z,5.20
2022-08-03T03:22:10.758Z,5.40
2022-08-03T03:24:41.615Z,5.00
2022-08-03T03:27:10.217Z,5.10
2022-08-03T03:29:44.937Z,5.20
2022-08-03T03:32:13.358Z,5.10
2022-08-03T03:34:42.728Z,5.40
2022-08-03T03:37:12.325Z,5.40
2022-08-03T03:39:40.107Z,5.10
2022-08-03T03:42:08.103Z,5.60
2022-08-03T03:44:36.019Z,5.40
2022-08-03T03:47:03.975Z,4.80
2022-08-03T03:49:32.659Z,5.70
2022-08-03T03:52:00.514Z,4.90
2022-08-03T03:54:43.772Z,4.90
2022-08-03T03:57:13.715Z,5.00
2022-08-03T03:59:42.751Z,4.70
2022-08-03T04:02:12.090Z,4.60
2022-08-03T04:04:58.619Z,5.00
2022-08-03T04:07:46.497Z,5.10
2022-08-03T04:10:39.896Z,5.50
2022-08-03T04:13:12.133Z,4.90
2022-08-03T04:15:41.402Z,5.40
2022-08-03T04:18:13.871Z,5.00
2022-08-03T04:20:47.628Z,5.40
2022-08-03T04:23:21.100Z,5.90
2022-08-03T04:25:51.672Z,4.90
2022-08-03T04:28:30.686Z,5.00
2022-08-03T04:31:03.189Z,5.60
2022-08-03T04:33:37.125Z,4.40
2022-08-03T04:36:10.844Z,5.10
2022-08-03T04:38:51.478Z,4.90
2022-08-03T04:41:22.834Z,5.50
2022-08-03T04:43:53.790Z,4.90
2022-08-03T04:46:25.322Z,4.80
2022-08-03T04:48:54.201Z,5.90
2022-08-03T04:51:22.909Z,5.20
2022-08-03T04:53:50.864Z,5.70
2022-08-03T04:56:19.096Z,5.30
2022-08-03T04:58:46.982Z,5.00
2022-08-03T05:01:16.449Z,5.70
2022-08-03T05:03:44.326Z,5.40
2022-08-03T05:06:12.608Z,5.30
2022-08-03T05:08:47.227Z,4.80
2022-08-03T05:11:19.471Z,5.10
2022-08-03T05:13:48.049Z,5.10
2022-08-03T05:16:15.779Z,4.90
2022-08-03T05:18:43.573Z,5.50
2022-08-03T05:21:14.505Z,5.40
2022-08-03T05:23:43.956Z,5.20
2022-08-03T05:26:12.037Z,5.10
2022-08-03T05:28:40.137Z,5.30
2022-08-03T05:31:19.770Z,5.40
2022-08-03T05:33:48.951Z,5.20
2022-08-03T05:36:16.864Z,5.40
2022-08-03T05:38:44.804Z,5.50
2022-08-03T05:41:21.658Z,5.10
2022-08-03T05:43:55.459Z,6.00
2022-08-03T05:46:23.758Z,5.10
2022-08-03T05:48:52.338Z,5.10
2022-08-03T05:51:21.979Z,5.20
2022-08-03T05:53:49.992Z,4.90
2022-08-03T05:56:17.901Z,5.50
2022-08-03T05:58:47.715Z,4.80
2022-08-03T06:01:17.610Z,5.30
2022-08-03T06:03:46.323Z,5.00
2022-08-03T06:06:15.000Z,4.90
2022-08-03T06:08:44.123Z,6.20
2022-08-03T06:11:13.161Z,5.20
2022-08-03T06:13:41.557Z,4.80
2022-08-03T06:16:10.171Z,5.80
2022-08-03T06:18:39.046Z,4.90
2022-08-03T06:21:14.098Z,4.90
2022-08-03T06:23:53.809Z,4.70
2022-08-03T06:26:26.529Z,4.40
2022-08-03T06:28:56.877Z,5.40
2022-08-03T06:31:33.450Z,4.90
2022-08-03T06:34:33.749Z,4.80
2022-08-03T06:36:58.587Z,4.70
2022-08-03T06:39:30.135Z,4.40
2022-08-03T06:41:58.189Z,3.90
2022-08-03T06:44:26.129Z,4.50
2022-08-03T06:46:54.068Z,4.10
2022-08-03T06:49:22.025Z,4.20
2022-08-03T06:52:05.871Z,4.50
2022-08-03T06:54:36.003Z,4.50
2022-08-03T06:57:05.347Z,3.90
2022-08-03T07:00:07.446Z,4.50
2022-08-03T07:02:21.749Z,4.30
2022-08-03T07:04:50.379Z,3.40
2022-08-03T07:07:19.232Z,4.10
2022-08-03T07:09:56.388Z,4.80
2022-08-03T07:12:28.201Z,4.30
2022-08-03T07:15:01.253Z,3.80
2022-08-03T07:17:33.252Z,3.90
2022-08-03T07:20:04.365Z,3.80
2022-08-03T07:22:32.585Z,3.20
2022-08-03T07:25:01.039Z,4.20
2022-08-03T07:27:29.568Z,3.30
2022-08-03T07:29:58.721Z,3.80
2022-08-03T07:32:28.434Z,3.30
2022-08-03T07:35:00.620Z,3.60
2022-08-03T07:37:30.829Z,3.30
2022-08-03T07:40:00.886Z,3.00
2022-08-03T07:42:29.633Z,3.20
2022-08-03T07:44:59.150Z,3.40
2022-08-03T07:47:35.317Z,3.90
2022-08-03T07:50:06.568Z,3.60
2022-08-03T07:52:49.588Z,3.70
2022-08-03T07:55:23.922Z,3.60
2022-08-03T07:58:05.304Z,3.60
2022-08-03T08:00:34.018Z,3.90
2022-08-03T08:03:02.881Z,3.40
2022-08-03T08:05:31.551Z,2.80
2022-08-03T08:08:01.463Z,3.60
2022-08-03T08:10:30.219Z,3.90
2022-08-03T08:13:00.881Z,3.10
2022-08-03T08:15:28.697Z,4.00
2022-08-03T08:18:00.922Z,4.20
2022-08-03T08:20:38.153Z,3.80
2022-08-03T08:23:12.166Z,3.70
2022-08-03T08:25:56.873Z,3.70
2022-08-03T08:28:31.874Z,4.70
2022-08-03T08:31:02.180Z,3.90
2022-08-03T08:33:48.290Z,3.20
2022-08-03T08:36:18.720Z,3.40
2022-08-03T08:38:46.589Z,4.00
2022-08-03T08:41:16.104Z,3.30
2022-08-03T08:43:44.023Z,3.80
2022-08-03T08:46:23.286Z,4.00
2022-08-03T08:48:54.007Z,4.10
2022-08-03T08:51:54.888Z,3.60
2022-08-03T08:54:17.974Z,4.00
2022-08-03T08:56:46.556Z,3.70
2022-08-03T08:59:15.138Z,3.20
2022-08-03T09:01:42.975Z,3.50
2022-08-03T09:04:12.385Z,3.80
2022-08-03T09:06:40.136Z,3.80
2022-08-03T09:09:08.354Z,3.60
2022-08-03T09:11:51.753Z,3.20
2022-08-03T09:14:35.203Z,3.60
2022-08-03T09:17:10.093Z,3.60
2022-08-03T09:20:05.982Z,3.20
2022-08-03T09:22:34.064Z,3.90
2022-08-03T09:25:23.848Z,3.70
2022-08-03T09:27:52.426Z,3.80
2022-08-03T09:30:34.235Z,3.30
2022-08-03T09:33:08.791Z,3.60
2022-08-03T09:35:58.113Z,3.20
2022-08-03T09:38:26.351Z,3.40
2022-08-03T09:41:00.282Z,3.80
2022-08-03T09:43:29.325Z,3.20
2022-08-03T09:46:05.426Z,3.00
2022-08-03T09:48:37.245Z,3.30
2022-08-03T09:51:32.306Z,3.00
2022-08-03T09:53:58.904Z,3.00
2022-08-03T09:56:46.771Z,3.10
2022-08-03T09:59:31.394Z,2.90
2022-08-03T10:02:02.567Z,3.30
2022-08-03T10:04:30.601Z,3.00
2022-08-03T10:07:06.845Z,5.40
2022-08-03T10:09:35.697Z,3.50
2022-08-03T10:12:14.171Z,6.70
2022-08-03T10:14:45.368Z,4.10
2022-08-03T10:17:13.698Z,6.30
2022-08-03T10:19:41.824Z,4.20
2022-08-03T10:22:24.542Z,2.90
2022-08-03T10:27:45.702Z,3.90
2022-08-03T10:30:14.381Z,3.60
2022-08-03T10:32:55.278Z,3.60
2022-08-03T10:35:25.156Z,3.20
2022-08-03T10:38:01.757Z,2.80
2022-08-03T10:40:47.914Z,2.90
2022-08-03T10:43:32.745Z,2.60
2022-08-03T10:46:03.309Z,2.70
2022-08-03T10:48:31.811Z,3.10
2022-08-03T10:50:59.810Z,2.80
2022-08-03T10:53:54.884Z,2.70
2022-08-03T10:56:51.786Z,2.20
2022-08-03T10:59:40.545Z,2.30
2022-08-03T11:02:09.927Z,3.00
2022-08-03T11:04:37.942Z,2.50
2022-08-03T11:07:25.646Z,2.10
2022-08-03T11:09:56.151Z,2.70
2022-08-03T11:12:33.019Z,2.50
2022-08-03T11:15:08.553Z,2.60
2022-08-03T11:17:46.660Z,2.50
2022-08-03T11:20:52.244Z,2.60
2022-08-03T11:24:03.105Z,2.10
2022-08-03T11:26:29.836Z,2.40
2022-08-03T11:29:28.931Z,2.80
2022-08-03T11:31:57.203Z,2.10
2022-08-03T11:34:25.900Z,2.40
2022-08-03T11:37:22.360Z,1.90
2022-08-03T11:39:54.767Z,3.10
2022-08-03T11:42:22.950Z,2.50
2022-08-03T11:44:53.125Z,2.50
2022-08-03T11:47:22.858Z,2.10
2022-08-03T11:49:54.563Z,2.20
2022-08-03T11:52:26.940Z,2.30
2022-08-03T11:54:57.046Z,1.60
2022-08-03T11:59:01.028Z,1.70
2022-08-03T12:00:30.683Z,2.10
2022-08-03T12:03:04.425Z,2.10
2022-08-03T12:05:51.335Z,2.30
2022-08-03T12:08:33.607Z,1.80
2022-08-03T12:11:06.533Z,2.20
2022-08-03T12:14:10.662Z,2.50
2022-08-03T12:16:33.209Z,1.90
2022-08-03T12:19:09.420Z,1.80
2022-08-03T12:21:56.830Z,2.00
2022-08-03T12:24:28.513Z,1.80
2022-08-03T12:27:00.015Z,1.70
2022-08-03T12:29:28.388Z,2.00
2022-08-03T12:31:56.618Z,2.20
2022-08-03T12:34:24.700Z,2.40
2022-08-03T12:36:59.622Z,2.20
2022-08-03T12:39:31.025Z,2.20
2022-08-03T12:41:59.405Z,2.50
2022-08-03T12:44:33.715Z,2.30
2022-08-03T12:47:04.543Z,2.50
2022-08-03T12:49:49.940Z,1.80
2022-08-03T12:52:21.933Z,2.10
2022-08-03T12:54:58.906Z,2.60
2022-08-03T12:57:42.856Z,2.30
2022-08-03T13:00:21.554Z,2.40
2022-08-03T13:05:57.447Z,2.20
2022-08-03T13:08:25.750Z,2.10
2022-08-03T13:10:53.605Z,1.90
2022-08-03T13:13:40.922Z,2.00
2022-08-03T13:16:08.737Z,1.90
2022-08-03T13:18:36.486Z,2.40
2022-08-03T13:21:05.949Z,2.30
2022-08-03T13:23:34.361Z,2.30
2022-08-03T13:26:02.080Z,1.90
2022-08-03T13:28:29.906Z,2.30
2022-08-03T13:30:57.679Z,2.10
2022-08-03T13:33:28.546Z,1.90
2022-08-03T13:35:56.804Z,2.00
2022-08-03T13:38:27.222Z,2.00
2022-08-03T13:40:56.357Z,1.90
2022-08-03T13:43:24.234Z,2.30
2022-08-03T13:45:56.510Z,1.90
2022-08-03T13:48:36.101Z,2.30
2022-08-03T13:51:22.187Z,2.30
2022-08-03T13:53:53.454Z,2.20
2022-08-03T13:56:21.332Z,2.10
2022-08-03T13:58:49.328Z,2.00
2022-08-03T14:01:18.580Z,2.40
2022-08-03T14:03:54.946Z,2.20
2022-08-03T14:06:24.499Z,1.90
2022-08-03T14:08:52.536Z,2.10
2022-08-03T14:11:20.334Z,2.20
2022-08-03T14:13:48.636Z,2.30
2022-08-03T14:16:17.011Z,2.40
2022-08-03T14:18:45.891Z,2.40
2022-08-03T14:21:14.305Z,2.60
2022-08-03T14:23:42.075Z,2.20
2022-08-03T14:26:10.446Z,2.20
2022-08-03T14:28:38.359Z,2.30
2022-08-03T14:31:08.177Z,2.20
2022-08-03T14:33:43.308Z,2.20
2022-08-03T14:36:11.195Z,2.40
2022-08-03T14:38:39.007Z,2.20
2022-08-03T14:41:07.186Z,1.90
2022-08-03T14:43:40.303Z,2.20
2022-08-03T14:46:28.211Z,2.70
2022-08-03T14:50:29.466Z,2.10
2022-08-03T14:51:51.354Z,2.80
2022-08-03T14:54:22.887Z,2.50
2022-08-03T14:56:51.360Z,2.10
2022-08-03T14:59:19.208Z,2.00
2022-08-03T15:02:06.364Z,2.30
2022-08-03T15:04:34.763Z,2.90
2022-08-03T15:07:02.999Z,2.10
2022-08-03T15:09:31.158Z,2.10
2022-08-03T15:11:59.818Z,2.80
2022-08-03T15:14:32.285Z,2.00
2022-08-03T15:17:01.188Z,2.50
2022-08-03T15:20:02.895Z,2.60
2022-08-03T15:22:20.466Z,2.50
2022-08-03T15:27:16.665Z,1.90
2022-08-03T15:30:07.624Z,2.20
2022-08-03T15:32:35.311Z,2.00
2022-08-03T15:35:03.311Z,2.40
2022-08-03T15:37:31.114Z,2.20
2022-08-03T15:40:00.806Z,2.60
2022-08-03T15:42:32.408Z,2.30
2022-08-03T15:45:00.462Z,2.70
2022-08-03T15:47:29.467Z,2.60
2022-08-03T15:49:57.315Z,2.40
2022-08-03T15:52:25.376Z,2.10
2022-08-03T15:54:53.388Z,2.90
2022-08-03T15:57:21.277Z,2.60
2022-08-03T15:59:49.386Z,3.00
2022-08-03T16:02:17.211Z,2.90
2022-08-03T16:04:45.094Z,2.60
2022-08-03T16:07:15.810Z,2.80
2022-08-03T16:09:44.213Z,3.10
2022-08-03T16:12:16.181Z,2.70
2022-08-03T16:14:53.808Z,2.40
2022-08-03T16:17:23.547Z,2.80
2022-08-03T16:19:52.260Z,2.90
2022-08-03T16:22:24.653Z,2.90
2022-08-03T16:24:54.511Z,2.80
2022-08-03T16:27:37.342Z,3.00
2022-08-03T16:30:16.056Z,3.00
2022-08-03T16:32:45.234Z,2.30
2022-08-03T16:35:19.685Z,2.90
2022-08-03T16:37:54.566Z,2.90
2022-08-03T16:40:25.954Z,2.50
2022-08-03T16:42:54.064Z,2.80
2022-08-03T16:45:22.103Z,2.50
2022-08-03T16:48:01.467Z,3.50
2022-08-03T16:50:35.326Z,2.80
2022-08-03T16:53:09.871Z,3.50
2022-08-03T16:55:48.477Z,2.90
2022-08-03T16:58:34.432Z,3.10
2022-08-03T17:01:22.445Z,2.80
2022-08-03T17:04:03.258Z,3.80
2022-08-03T17:06:44.629Z,3.90
2022-08-03T17:09:17.988Z,2.90
2022-08-03T17:11:50.141Z,3.30
2022-08-03T17:14:28.470Z,2.90
2022-08-03T17:17:03.896Z,3.10
2022-08-03T17:19:36.250Z,2.80
2022-08-03T17:22:31.222Z,3.00
2022-08-03T17:25:07.667Z,3.20
2022-08-03T17:28:49.608Z,3.10
2022-08-03T17:30:46.212Z,4.80
2022-08-03T17:33:20.541Z,3.30
2022-08-03T17:35:53.250Z,3.00
2022-08-03T17:38:24.951Z,3.10
2022-08-03T17:44:13.313Z,3.20
2022-08-03T17:46:14.179Z,3.20
2022-08-03T17:48:47.982Z,3.20
2022-08-03T17:51:46.560Z,2.90
2022-08-03T17:54:33.395Z,3.30
2022-08-03T17:58:02.438Z,3.10
2022-08-03T18:00:45.485Z,2.80
2022-08-03T18:03:58.942Z,2.60
2022-08-03T18:06:36.863Z,2.90
2022-08-03T18:10:06.159Z,2.80
2022-08-03T18:12:01.571Z,2.80
2022-08-03T18:14:57.252Z,2.90
2022-08-03T18:20:32.912Z,3.50
2022-08-03T18:23:24.958Z,2.90
2022-08-03T18:26:04.699Z,3.30
2022-08-03T18:28:35.817Z,3.20
2022-08-03T18:34:19.775Z,2.70
2022-08-03T18:36:48.705Z,3.30
2022-08-03T18:39:19.707Z,3.10
2022-08-03T18:41:47.733Z,3.60
2022-08-03T18:44:37.566Z,3.30
2022-08-03T18:47:50.901Z,3.50
2022-08-03T18:50:40.979Z,3.00
2022-08-03T18:54:02.183Z,3.20
2022-08-03T18:56:51.285Z,3.00
2022-08-03T18:59:33.912Z,4.40
2022-08-03T19:02:20.678Z,4.40
2022-08-03T19:04:54.055Z,4.10
2022-08-03T19:07:27.608Z,4.00
2022-08-03T19:10:10.366Z,3.50
2022-08-03T19:13:09.637Z,3.60
2022-08-03T19:15:51.278Z,4.00
2022-08-03T19:18:21.881Z,3.00
2022-08-03T19:20:56.241Z,3.50
2022-08-03T19:23:26.044Z,3.50
2022-08-03T19:26:03.472Z,3.20
2022-08-03T19:28:33.089Z,3.40
2022-08-03T19:31:02.650Z,3.70
2022-08-03T19:33:31.507Z,2.80
2022-08-03T19:36:25.685Z,3.30
2022-08-03T19:38:57.146Z,3.60
2022-08-03T19:41:41.971Z,3.40
2022-08-03T19:44:20.242Z,3.80
2022-08-03T19:47:02.073Z,3.60
2022-08-03T19:49:56.982Z,3.40
2022-08-03T19:52:31.345Z,3.80
2022-08-03T19:55:18.560Z,3.40
2022-08-03T19:57:49.355Z,3.70
2022-08-03T20:00:20.059Z,3.60
2022-08-03T20:02:55.877Z,3.60
2022-08-03T20:05:25.995Z,3.80
2022-08-03T20:07:57.332Z,3.30
2022-08-03T20:10:27.059Z,3.70
2022-08-03T20:12:56.172Z,3.70
2022-08-03T20:15:31.059Z,3.20
2022-08-03T20:18:00.240Z,3.70
2022-08-03T20:20:32.769Z,3.90
2022-08-03T20:23:06.986Z,3.80
2022-08-03T20:25:57.198Z,4.00
2022-08-03T20:29:00.460Z,3.50
2022-08-03T20:31:38.143Z,3.50
2022-08-03T20:34:07.007Z,3.60
2022-08-03T20:36:37.265Z,3.80
2022-08-03T20:39:07.423Z,3.60
2022-08-03T20:41:36.036Z,3.80
2022-08-03T20:44:05.696Z,3.60
2022-08-03T20:46:50.323Z,4.00
2022-08-03T20:49:23.369Z,3.20
2022-08-03T20:51:53.139Z,3.60
2022-08-03T20:54:30.408Z,3.50
2022-08-03T20:57:04.301Z,3.60
2022-08-03T20:59:50.014Z,3.80
2022-08-03T21:02:30.095Z,3.90
2022-08-03T21:05:03.814Z,4.10
2022-08-03T21:08:06.315Z,3.80
2022-08-03T21:10:39.724Z,3.70
2022-08-03T21:13:04.521Z,3.00
2022-08-03T21:13:04.918Z,2.80
2022-08-03T21:16:11.284Z,4.30
2022-08-03T21:18:50.209Z,3.90
2022-08-03T21:21:21.455Z,3.70
2022-08-03T21:23:55.235Z,3.90
2022-08-03T21:26:27.018Z,4.30
2022-08-03T21:28:57.028Z,3.80
2022-08-03T21:31:26.767Z,3.90
2022-08-03T21:33:59.626Z,4.10
2022-08-03T21:36:30.931Z,3.60
2022-08-03T21:38:59.727Z,4.30
2022-08-03T21:41:32.037Z,4.20
2022-08-03T21:44:02.062Z,21.10
2022-08-03T21:46:36.000Z,5.60
2022-08-03T21:50:04.348Z,4.40
2022-08-03T21:52:00.488Z,4.10
2022-08-03T21:54:40.162Z,4.10
2022-08-03T21:57:23.359Z,4.10
2022-08-03T21:59:56.566Z,4.70
2022-08-03T22:02:30.111Z,4.60
2022-08-03T22:05:00.224Z,4.80
2022-08-03T22:07:33.659Z,4.90
2022-08-03T22:10:04.045Z,4.40
2022-08-03T22:12:33.422Z,5.50
2022-08-03T22:15:05.905Z,5.40
2022-08-03T22:20:25.457Z,5.20
2022-08-03T22:22:57.244Z,5.00
2022-08-03T22:25:31.698Z,4.80
2022-08-03T22:28:03.941Z,5.00
2022-08-03T22:30:33.283Z,5.30
2022-08-03T22:33:04.812Z,5.50
2022-08-03T22:35:47.357Z,5.00
2022-08-03T22:38:18.122Z,5.00
2022-08-03T22:40:50.799Z,5.20
2022-08-03T22:43:26.519Z,5.10
2022-08-03T22:46:09.743Z,11.20
2022-08-03T22:48:41.362Z,6.70
2022-08-03T22:51:10.341Z,6.60
2022-08-03T22:53:39.456Z,5.60
2022-08-03T22:56:07.837Z,5.40
2022-08-03T22:58:35.729Z,5.30
2022-08-03T23:01:11.767Z,5.70
2022-08-03T23:04:00.310Z,5.80
2022-08-03T23:06:37.632Z,6.20
2022-08-03T23:09:12.111Z,5.60
2022-08-03T23:11:45.591Z,6.00
2022-08-03T23:14:18.395Z,6.00
2022-08-03T23:16:50.366Z,6.30
2022-08-03T23:19:25.549Z,6.40
2022-08-03T23:22:03.188Z,5.60
2022-08-03T23:24:36.327Z,5.70
2022-08-03T23:27:08.229Z,6.40
2022-08-03T23:29:38.414Z,6.40
2022-08-03T23:32:07.165Z,6.10
2022-08-03T23:34:57.045Z,6.90
2022-08-03T23:37:26.178Z,5.80
2022-08-03T23:39:56.802Z,6.90
2022-08-03T23:42:25.701Z,6.00
2022-08-03T23:44:59.302Z,6.20
2022-08-03T23:47:46.853Z,6.70
2022-08-03T23:53:23.400Z,6.60
2022-08-03T23:56:29.468Z,6.30
2022-08-03T23:59:14.531Z,6.80
